sensor_id;sensor_type;location;lat;lon;timestamp;pressure;altitude;pressure_sealevel;temperature;humidity
64158;BME280;50449;51.528;5.076;2023-09-19T00:00:57;100676.34;;;22.92;49.93
64158;BME280;50449;51.528;5.076;2023-09-19T00:03:23;100682.16;;;22.90;50.04
64158;BME280;50449;51.528;5.076;2023-09-19T00:05:50;100675.84;;;22.89;50.03
64158;BME280;50449;51.528;5.076;2023-09-19T00:08:16;100683.63;;;22.87;50.32
64158;BME280;50449;51.528;5.076;2023-09-19T00:10:42;100684.78;;;22.86;50.24
64158;BME280;50449;51.528;5.076;2023-09-19T00:13:08;100693.34;;;22.85;50.17
64158;BME280;50449;51.528;5.076;2023-09-19T00:15:45;100691.75;;;22.84;50.03
64158;BME280;50449;51.528;5.076;2023-09-19T00:18:14;100701.13;;;22.83;50.01
64158;BME280;50449;51.528;5.076;2023-09-19T00:20:41;100707.00;;;22.81;50.22
64158;BME280;50449;51.528;5.076;2023-09-19T00:23:07;100692.72;;;22.79;50.05
64158;BME280;50449;51.528;5.076;2023-09-19T00:25:36;100705.69;;;22.79;50.02
64158;BME280;50449;51.528;5.076;2023-09-19T00:28:03;100711.53;;;22.77;49.78
64158;BME280;50449;51.528;5.076;2023-09-19T00:30:29;100705.53;;;22.75;49.99
64158;BME280;50449;51.528;5.076;2023-09-19T00:32:55;100714.94;;;22.74;50.05
64158;BME280;50449;51.528;5.076;2023-09-19T00:35:23;100724.34;;;22.73;50.14
64158;BME280;50449;51.528;5.076;2023-09-19T00:37:49;100722.69;;;22.72;50.23
64158;BME280;50449;51.528;5.076;2023-09-19T00:40:15;100720.28;;;22.71;50.21
64158;BME280;50449;51.528;5.076;2023-09-19T00:42:45;100724.16;;;22.69;49.97
64158;BME280;50449;51.528;5.076;2023-09-19T00:45:12;100736.31;;;22.68;50.21
64158;BME280;50449;51.528;5.076;2023-09-19T00:47:49;100735.03;;;22.66;50.20
64158;BME280;50449;51.528;5.076;2023-09-19T00:50:17;100741.66;;;22.65;49.99
64158;BME280;50449;51.528;5.076;2023-09-19T00:52:46;100741.19;;;22.63;50.27
64158;BME280;50449;51.528;5.076;2023-09-19T00:55:12;100752.50;;;22.61;49.77
64158;BME280;50449;51.528;5.076;2023-09-19T00:57:39;100748.16;;;22.60;49.68
64158;BME280;50449;51.528;5.076;2023-09-19T01:00:09;100758.31;;;22.60;49.82
64158;BME280;50449;51.528;5.076;2023-09-19T01:02:41;100758.97;;;22.57;49.78
64158;BME280;50449;51.528;5.076;2023-09-19T01:05:08;100761.72;;;22.57;49.84
64158;BME280;50449;51.528;5.076;2023-09-19T01:07:33;100763.19;;;22.54;50.09
64158;BME280;50449;51.528;5.076;2023-09-19T01:10:00;100754.13;;;22.54;49.76
64158;BME280;50449;51.528;5.076;2023-09-19T01:15:51;100762.53;;;22.49;49.98
64158;BME280;50449;51.528;5.076;2023-09-19T01:18:31;100752.50;;;22.44;49.86
64158;BME280;50449;51.528;5.076;2023-09-19T01:26:30;100760.91;;;22.39;49.73
64158;BME280;50449;51.528;5.076;2023-09-19T01:29:33;100765.13;;;22.36;49.96
64158;BME280;50449;51.528;5.076;2023-09-19T01:32:04;100776.13;;;22.36;49.62
64158;BME280;50449;51.528;5.076;2023-09-19T01:34:54;100780.63;;;22.32;49.87
64158;BME280;50449;51.528;5.076;2023-09-19T01:37:23;100783.38;;;22.32;49.66
64158;BME280;50449;51.528;5.076;2023-09-19T01:40:03;100770.78;;;22.31;49.75
64158;BME280;50449;51.528;5.076;2023-09-19T01:45:33;100776.13;;;22.28;50.21
64158;BME280;50449;51.528;5.076;2023-09-19T01:48:08;100774.00;;;22.24;50.10
64158;BME280;50449;51.528;5.076;2023-09-19T01:50:56;100779.84;;;22.23;49.59
64158;BME280;50449;51.528;5.076;2023-09-19T01:53:27;100776.25;;;22.22;50.06
64158;BME280;50449;51.528;5.076;2023-09-19T01:55:57;100778.19;;;22.22;50.12
64158;BME280;50449;51.528;5.076;2023-09-19T01:58:39;100777.69;;;22.20;49.83
64158;BME280;50449;51.528;5.076;2023-09-19T02:01:10;100779.66;;;22.19;49.62
64158;BME280;50449;51.528;5.076;2023-09-19T02:03:38;100771.69;;;22.18;49.63
64158;BME280;50449;51.528;5.076;2023-09-19T02:06:04;100782.69;;;22.18;50.15
64158;BME280;50449;51.528;5.076;2023-09-19T02:08:30;100777.50;;;22.16;49.29
64158;BME280;50449;51.528;5.076;2023-09-19T02:10:58;100779.75;;;22.14;49.96
64158;BME280;50449;51.528;5.076;2023-09-19T02:13:25;100777.34;;;22.13;49.65
64158;BME280;50449;51.528;5.076;2023-09-19T02:15:51;100780.09;;;22.13;49.54
64158;BME280;50449;51.528;5.076;2023-09-19T02:18:16;100785.09;;;22.11;49.43
64158;BME280;50449;51.528;5.076;2023-09-19T02:20:42;100780.72;;;22.10;49.57
64158;BME280;50449;51.528;5.076;2023-09-19T02:23:09;100790.13;;;22.09;49.51
64158;BME280;50449;51.528;5.076;2023-09-19T02:25:35;100781.38;;;22.07;49.46
64158;BME280;50449;51.528;5.076;2023-09-19T02:28:01;100783.63;;;22.04;49.52
64158;BME280;50449;51.528;5.076;2023-09-19T02:30:29;100782.00;;;22.03;49.59
64158;BME280;50449;51.528;5.076;2023-09-19T02:32:54;100779.56;;;22.02;49.72
64158;BME280;50449;51.528;5.076;2023-09-19T02:35:20;100778.25;;;21.99;49.66
64158;BME280;50449;51.528;5.076;2023-09-19T02:37:46;100780.22;;;21.99;49.37
64158;BME280;50449;51.528;5.076;2023-09-19T02:40:11;100782.47;;;21.97;49.36
64158;BME280;50449;51.528;5.076;2023-09-19T02:42:54;100789.09;;;21.96;49.77
64158;BME280;50449;51.528;5.076;2023-09-19T02:45:20;100780.34;;;21.94;49.59
64158;BME280;50449;51.528;5.076;2023-09-19T02:47:46;100781.50;;;21.93;49.48
64158;BME280;50449;51.528;5.076;2023-09-19T02:50:13;100786.16;;;21.92;49.25
64158;BME280;50449;51.528;5.076;2023-09-19T02:52:42;100784.06;;;21.89;49.50
64158;BME280;50449;51.528;5.076;2023-09-19T02:55:12;100786.00;;;21.89;49.45
64158;BME280;50449;51.528;5.076;2023-09-19T02:57:46;100784.38;;;21.88;49.35
64158;BME280;50449;51.528;5.076;2023-09-19T03:00:12;100783.88;;;21.86;49.52
64158;BME280;50449;51.528;5.076;2023-09-19T03:02:37;100786.94;;;21.84;49.77
64158;BME280;50449;51.528;5.076;2023-09-19T03:05:05;100780.66;;;21.83;49.31
64158;BME280;50449;51.528;5.076;2023-09-19T03:07:32;100781.28;;;21.80;49.44
64158;BME280;50449;51.528;5.076;2023-09-19T03:09:57;100787.09;;;21.79;49.80
64158;BME280;50449;51.528;5.076;2023-09-19T03:12:23;100791.78;;;21.78;49.35
64158;BME280;50449;51.528;5.076;2023-09-19T03:14:48;100791.28;;;21.76;49.37
64158;BME280;50449;51.528;5.076;2023-09-19T03:17:15;100797.13;;;21.75;49.20
64158;BME280;50449;51.528;5.076;2023-09-19T03:19:41;100796.28;;;21.74;49.37
64158;BME280;50449;51.528;5.076;2023-09-19T03:22:06;100797.72;;;21.72;49.20
64158;BME280;50449;51.528;5.076;2023-09-19T03:24:33;100796.13;;;21.71;49.67
64158;BME280;50449;51.528;5.076;2023-09-19T03:27:00;100801.13;;;21.69;49.30
64158;BME280;50449;51.528;5.076;2023-09-19T03:29:26;100788.50;;;21.68;49.21
64158;BME280;50449;51.528;5.076;2023-09-19T03:31:52;100795.13;;;21.67;49.17
64158;BME280;50449;51.528;5.076;2023-09-19T03:34:19;100794.66;;;21.65;49.33
64158;BME280;50449;51.528;5.076;2023-09-19T03:36:45;100794.94;;;21.63;49.61
64158;BME280;50449;51.528;5.076;2023-09-19T03:39:10;100795.25;;;21.61;49.29
64158;BME280;50449;51.528;5.076;2023-09-19T03:41:35;100796.41;;;21.60;49.62
64158;BME280;50449;51.528;5.076;2023-09-19T03:44:02;100789.25;;;21.59;49.10
64158;BME280;50449;51.528;5.076;2023-09-19T03:46:28;100791.53;;;21.57;49.68
64158;BME280;50449;51.528;5.076;2023-09-19T03:48:53;100789.09;;;21.56;49.19
64158;BME280;50449;51.528;5.076;2023-09-19T03:51:20;100795.72;;;21.55;49.08
64158;BME280;50449;51.528;5.076;2023-09-19T03:53:45;100790.53;;;21.53;49.62
64158;BME280;50449;51.528;5.076;2023-09-19T03:56:10;100790.84;;;21.52;49.07
64158;BME280;50449;51.528;5.076;2023-09-19T03:58:36;100787.28;;;21.51;49.46
64158;BME280;50449;51.528;5.076;2023-09-19T04:01:05;100776.13;;;21.48;49.55
64158;BME280;50449;51.528;5.076;2023-09-19T04:03:34;100789.06;;;21.47;49.06
64158;BME280;50449;51.528;5.076;2023-09-19T04:06:10;100777.56;;;21.45;49.20
64158;BME280;50449;51.528;5.076;2023-09-19T04:08:37;100781.41;;;21.44;49.11
64158;BME280;50449;51.528;5.076;2023-09-19T04:11:02;100786.44;;;21.42;49.52
64158;BME280;50449;51.528;5.076;2023-09-19T04:13:27;100782.84;;;21.42;49.21
64158;BME280;50449;51.528;5.076;2023-09-19T04:15:53;100798.88;;;21.39;49.48
64158;BME280;50449;51.528;5.076;2023-09-19T04:18:18;100803.53;;;21.39;49.06
64158;BME280;50449;51.528;5.076;2023-09-19T04:20:52;100806.59;;;21.37;49.50
64158;BME280;50449;51.528;5.076;2023-09-19T04:23:18;100809.63;;;21.36;48.99
64158;BME280;50449;51.528;5.076;2023-09-19T04:25:46;100809.13;;;21.34;49.50
64158;BME280;50449;51.528;5.076;2023-09-19T04:28:11;100816.56;;;21.33;49.00
64158;BME280;50449;51.528;5.076;2023-09-19T04:30:38;100826.75;;;21.33;49.53
64158;BME280;50449;51.528;5.076;2023-09-19T04:33:05;100819.94;;;21.30;49.37
64158;BME280;50449;51.528;5.076;2023-09-19T04:35:31;100832.88;;;21.30;49.05
64158;BME280;50449;51.528;5.076;2023-09-19T04:37:57;100835.94;;;21.28;49.58
64158;BME280;50449;51.528;5.076;2023-09-19T04:40:23;100844.16;;;21.28;49.46
64158;BME280;50449;51.528;5.076;2023-09-19T04:42:56;100844.47;;;21.27;49.07
64158;BME280;50449;51.528;5.076;2023-09-19T04:45:28;100853.03;;;21.25;49.35
64158;BME280;50449;51.528;5.076;2023-09-19T04:47:54;100847.84;;;21.24;49.31
64158;BME280;50449;51.528;5.076;2023-09-19T04:50:20;100857.22;;;21.23;49.32
64158;BME280;50449;51.528;5.076;2023-09-19T04:52:50;100853.69;;;21.22;49.40
64158;BME280;50449;51.528;5.076;2023-09-19T04:55:19;100857.53;;;21.21;49.53
64158;BME280;50449;51.528;5.076;2023-09-19T04:57:50;100855.09;;;21.20;48.83
64158;BME280;50449;51.528;5.076;2023-09-19T05:00:18;100856.22;;;21.18;48.95
64158;BME280;50449;51.528;5.076;2023-09-19T05:02:44;100854.91;;;21.16;48.98
64158;BME280;50449;51.528;5.076;2023-09-19T05:05:10;100857.66;;;21.16;48.97
64158;BME280;50449;51.528;5.076;2023-09-19T05:07:36;100852.47;;;21.14;49.26
64158;BME280;50449;51.528;5.076;2023-09-19T05:10:03;100853.59;;;21.13;49.06
64158;BME280;50449;51.528;5.076;2023-09-19T05:12:32;100849.22;;;21.12;49.01
64158;BME280;50449;51.528;5.076;2023-09-19T05:14:58;100853.09;;;21.11;49.00
64158;BME280;50449;51.528;5.076;2023-09-19T05:17:23;100856.16;;;21.10;49.05
64158;BME280;50449;51.528;5.076;2023-09-19T05:19:49;100860.00;;;21.09;49.08
64158;BME280;50449;51.528;5.076;2023-09-19T05:22:15;100861.94;;;21.08;49.61
64158;BME280;50449;51.528;5.076;2023-09-19T05:24:40;100865.84;;;21.07;48.96
64158;BME280;50449;51.528;5.076;2023-09-19T05:27:06;100862.56;;;21.05;49.08
64158;BME280;50449;51.528;5.076;2023-09-19T05:29:32;100856.28;;;21.05;49.09
64158;BME280;50449;51.528;5.076;2023-09-19T05:31:58;100866.47;;;21.04;49.48
64158;BME280;50449;51.528;5.076;2023-09-19T05:34:24;100864.81;;;21.03;49.48
64158;BME280;50449;51.528;5.076;2023-09-19T05:36:51;100862.41;;;21.02;49.05
64158;BME280;50449;51.528;5.076;2023-09-19T05:39:17;100867.06;;;21.01;49.39
64158;BME280;50449;51.528;5.076;2023-09-19T05:44:18;100857.50;;;20.99;49.19
64158;BME280;50449;51.528;5.076;2023-09-19T05:46:43;100859.44;;;20.98;49.17
64158;BME280;50449;51.528;5.076;2023-09-19T05:49:10;100856.19;;;20.96;49.47
64158;BME280;50449;51.528;5.076;2023-09-19T05:51:35;100864.44;;;20.96;49.26
64158;BME280;50449;51.528;5.076;2023-09-19T05:54:01;100862.00;;;20.94;49.55
64158;BME280;50449;51.528;5.076;2023-09-19T05:56:27;100859.25;;;20.94;49.13
64158;BME280;50449;51.528;5.076;2023-09-19T05:58:52;100863.13;;;20.93;49.14
64158;BME280;50449;51.528;5.076;2023-09-19T06:01:18;100856.00;;;20.92;49.51
64158;BME280;50449;51.528;5.076;2023-09-19T06:03:44;100855.50;;;20.90;49.21
64158;BME280;50449;51.528;5.076;2023-09-19T06:06:09;100859.38;;;20.89;49.19
64158;BME280;50449;51.528;5.076;2023-09-19T06:08:35;100862.13;;;20.89;49.02
64158;BME280;50449;51.528;5.076;2023-09-19T06:11:00;100861.28;;;20.89;49.04
64158;BME280;50449;51.528;5.076;2023-09-19T06:13:29;100862.41;;;20.88;49.31
64158;BME280;50449;51.528;5.076;2023-09-19T06:15:55;100869.06;;;20.87;49.62
64158;BME280;50449;51.528;5.076;2023-09-19T06:18:21;100864.66;;;20.86;49.22
64158;BME280;50449;51.528;5.076;2023-09-19T06:20:51;100874.84;;;20.85;49.34
64158;BME280;50449;51.528;5.076;2023-09-19T06:23:17;100870.78;;;20.83;49.30
64158;BME280;50449;51.528;5.076;2023-09-19T06:25:43;100881.75;;;20.83;49.11
64158;BME280;50449;51.528;5.076;2023-09-19T06:28:08;100879.00;;;20.83;49.51
64158;BME280;50449;51.528;5.076;2023-09-19T06:30:37;100896.63;;;20.82;49.39
64158;BME280;50449;51.528;5.076;2023-09-19T06:33:05;100893.34;;;20.80;49.23
64158;BME280;50449;51.528;5.076;2023-09-19T06:35:33;100891.41;;;20.80;49.78
64158;BME280;50449;51.528;5.076;2023-09-19T06:38:01;100888.97;;;20.79;49.45
64158;BME280;50449;51.528;5.076;2023-09-19T06:40:28;100903.53;;;20.79;49.53
64158;BME280;50449;51.528;5.076;2023-09-19T06:42:53;100892.03;;;20.77;49.24
64158;BME280;50449;51.528;5.076;2023-09-19T06:45:20;100902.22;;;20.77;49.64
64158;BME280;50449;51.528;5.076;2023-09-19T06:47:47;100903.84;;;20.78;49.18
64158;BME280;50449;51.528;5.076;2023-09-19T06:50:20;100902.22;;;20.77;49.55
64158;BME280;50449;51.528;5.076;2023-09-19T06:52:48;100903.66;;;20.74;49.27
64158;BME280;50449;51.528;5.076;2023-09-19T06:55:17;100907.19;;;20.74;49.62
64158;BME280;50449;51.528;5.076;2023-09-19T06:57:45;100901.19;;;20.72;49.67
64158;BME280;50449;51.528;5.076;2023-09-19T07:00:11;100888.28;;;20.73;49.53
64158;BME280;50449;51.528;5.076;2023-09-19T07:02:44;100894.09;;;20.71;49.19
64158;BME280;50449;51.528;5.076;2023-09-19T07:05:10;100903.13;;;20.72;49.30
64158;BME280;50449;51.528;5.076;2023-09-19T07:07:35;100899.88;;;20.70;49.62
64158;BME280;50449;51.528;5.076;2023-09-19T07:10:02;100905.38;;;20.70;49.59
64158;BME280;50449;51.528;5.076;2023-09-19T07:12:27;100908.91;;;20.70;49.77
64158;BME280;50449;51.528;5.076;2023-09-19T07:14:53;100912.00;;;20.69;49.76
64158;BME280;50449;51.528;5.076;2023-09-19T07:17:18;100906.78;;;20.67;49.57
64158;BME280;50449;51.528;5.076;2023-09-19T07:19:44;100904.06;;;20.67;49.48
64158;BME280;50449;51.528;5.076;2023-09-19T07:22:10;100895.00;;;20.67;49.50
64158;BME280;50449;51.528;5.076;2023-09-19T07:24:35;100888.72;;;20.66;49.84
64158;BME280;50449;51.528;5.076;2023-09-19T07:27:02;100892.56;;;20.65;49.47
64158;BME280;50449;51.528;5.076;2023-09-19T07:29:28;100887.06;;;20.65;49.33
64158;BME280;50449;51.528;5.076;2023-09-19T07:31:53;100898.06;;;20.65;49.72
64158;BME280;50449;51.528;5.076;2023-09-19T07:34:19;100896.44;;;20.64;49.82
64158;BME280;50449;51.528;5.076;2023-09-19T07:36:47;100894.19;;;20.66;49.51
64158;BME280;50449;51.528;5.076;2023-09-19T07:39:13;100900.50;;;20.67;49.41
64158;BME280;50449;51.528;5.076;2023-09-19T07:41:38;100906.00;;;20.67;49.39
64158;BME280;50449;51.528;5.076;2023-09-19T07:44:04;100910.66;;;20.66;49.41
64158;BME280;50449;51.528;5.076;2023-09-19T07:46:29;100910.66;;;20.66;49.48
64158;BME280;50449;51.528;5.076;2023-09-19T07:48:57;100897.75;;;20.67;49.71
64158;BME280;50449;51.528;5.076;2023-09-19T07:51:22;100899.38;;;20.82;49.42
64158;BME280;50449;51.528;5.076;2023-09-19T07:53:48;100907.50;;;20.87;49.23
64158;BME280;50449;51.528;5.076;2023-09-19T07:56:14;100905.53;;;20.87;48.92
64158;BME280;50449;51.528;5.076;2023-09-19T07:58:40;100904.41;;;20.88;49.20
64158;BME280;50449;51.528;5.076;2023-09-19T08:01:10;100907.16;;;20.88;49.27
64158;BME280;50449;51.528;5.076;2023-09-19T08:03:36;100906.34;;;20.88;49.13
64158;BME280;50449;51.528;5.076;2023-09-19T08:06:08;100915.72;;;20.87;49.35
64158;BME280;50449;51.528;5.076;2023-09-19T08:08:34;100916.53;;;20.87;49.05
64158;BME280;50449;51.528;5.076;2023-09-19T08:11:04;100915.72;;;20.87;49.32
64158;BME280;50449;51.528;5.076;2023-09-19T08:13:41;100918.47;;;20.87;49.42
64158;BME280;50449;51.528;5.076;2023-09-19T08:16:12;100923.13;;;20.86;49.40
64158;BME280;50449;51.528;5.076;2023-09-19T08:18:40;100905.84;;;20.86;49.13
64158;BME280;50449;51.528;5.076;2023-09-19T08:21:06;100905.84;;;20.86;49.45
64158;BME280;50449;51.528;5.076;2023-09-19T08:23:37;100912.13;;;20.86;49.22
64158;BME280;50449;51.528;5.076;2023-09-19T08:26:03;100907.50;;;20.87;49.44
64158;BME280;50449;51.528;5.076;2023-09-19T08:28:33;100915.72;;;20.87;49.49
64158;BME280;50449;51.528;5.076;2023-09-19T08:31:06;100912.97;;;20.87;49.34
64158;BME280;50449;51.528;5.076;2023-09-19T08:33:34;100904.41;;;20.88;49.57
64158;BME280;50449;51.528;5.076;2023-09-19T08:36:01;100896.97;;;20.89;49.44
64158;BME280;50449;51.528;5.076;2023-09-19T08:38:30;100911.56;;;20.89;49.57
64158;BME280;50449;51.528;5.076;2023-09-19T08:40:58;100901.78;;;20.83;49.74
64158;BME280;50449;51.528;5.076;2023-09-19T08:43:25;100891.00;;;20.87;49.58
64158;BME280;50449;51.528;5.076;2023-09-19T08:46:15;100906.66;;;20.86;49.30
64158;BME280;50449;51.528;5.076;2023-09-19T08:48:46;100911.03;;;20.87;49.51
64158;BME280;50449;51.528;5.076;2023-09-19T08:51:27;100908.28;;;20.87;49.25
64158;BME280;50449;51.528;5.076;2023-09-19T08:54:06;100909.91;;;20.88;49.67
64158;BME280;50449;51.528;5.076;2023-09-19T08:56:33;100908.81;;;20.89;49.71
64158;BME280;50449;51.528;5.076;2023-09-19T08:59:06;100911.22;;;20.91;49.29
64158;BME280;50449;51.528;5.076;2023-09-19T09:01:38;100913.66;;;20.92;49.15
64158;BME280;50449;51.528;5.076;2023-09-19T09:04:08;100915.28;;;20.93;49.13
64158;BME280;50449;51.528;5.076;2023-09-19T09:06:34;100909.50;;;20.95;49.33
64158;BME280;50449;51.528;5.076;2023-09-19T09:09:01;100916.59;;;20.96;49.49
64158;BME280;50449;51.528;5.076;2023-09-19T09:11:28;100913.25;;;20.99;49.69
64158;BME280;50449;51.528;5.076;2023-09-19T09:13:53;100913.25;;;20.99;49.43
64158;BME280;50449;51.528;5.076;2023-09-19T09:16:19;100912.94;;;21.01;49.12
64158;BME280;50449;51.528;5.076;2023-09-19T09:18:45;100913.75;;;21.01;49.70
64158;BME280;50449;51.528;5.076;2023-09-19T09:21:12;100902.47;;;21.03;49.64
64158;BME280;50449;51.528;5.076;2023-09-19T09:23:38;100903.25;;;21.03;49.54
64158;BME280;50449;51.528;5.076;2023-09-19T09:26:04;100899.09;;;21.06;49.49
64158;BME280;50449;51.528;5.076;2023-09-19T09:28:32;100901.53;;;21.07;49.43
64158;BME280;50449;51.528;5.076;2023-09-19T09:30:59;100884.72;;;21.09;49.33
64158;BME280;50449;51.528;5.076;2023-09-19T09:33:28;100880.88;;;21.10;49.73
64158;BME280;50449;51.528;5.076;2023-09-19T09:35:54;100887.19;;;21.10;49.85
64158;BME280;50449;51.528;5.076;2023-09-19T09:38:26;100880.25;;;21.13;49.79
64158;BME280;50449;51.528;5.076;2023-09-19T09:41:00;100878.00;;;21.15;49.66
64158;BME280;50449;51.528;5.076;2023-09-19T09:43:37;100888.66;;;21.16;49.50
64158;BME280;50449;51.528;5.076;2023-09-19T09:46:17;100898.56;;;21.17;50.00
64158;BME280;50449;51.528;5.076;2023-09-19T09:49:01;100889.19;;;21.18;49.61
64158;BME280;50449;51.528;5.076;2023-09-19T09:51:42;100879.50;;;21.21;49.57
64158;BME280;50449;51.528;5.076;2023-09-19T09:54:18;100883.88;;;21.22;49.65
64158;BME280;50449;51.528;5.076;2023-09-19T09:59:20;100888.44;;;21.27;49.87
64158;BME280;50449;51.528;5.076;2023-09-19T10:01:49;100887.81;;;21.30;49.68
64158;BME280;50449;51.528;5.076;2023-09-19T10:04:35;100887.81;;;21.30;49.97
64158;BME280;50449;51.528;5.076;2023-09-19T10:07:24;100895.44;;;21.33;50.23
64158;BME280;50449;51.528;5.076;2023-09-19T10:09:51;100886.56;;;21.36;50.34
64158;BME280;50449;51.528;5.076;2023-09-19T10:12:18;100896.16;;;21.38;49.88
64158;BME280;50449;51.528;5.076;2023-09-19T10:14:44;100891.97;;;21.41;50.20
64158;BME280;50449;51.528;5.076;2023-09-19T10:17:13;100890.53;;;21.44;50.14
64158;BME280;50449;51.528;5.076;2023-09-19T10:19:42;100888.28;;;21.46;50.29
64158;BME280;50449;51.528;5.076;2023-09-19T10:22:12;100903.34;;;21.48;49.82
64158;BME280;50449;51.528;5.076;2023-09-19T10:24:40;100879.13;;;21.50;50.25
64158;BME280;50449;51.528;5.076;2023-09-19T10:27:06;100882.03;;;21.54;50.07
64158;BME280;50449;51.528;5.076;2023-09-19T10:29:38;100879.00;;;21.55;49.76
64158;BME280;50449;51.528;5.076;2023-09-19T10:32:05;100881.41;;;21.57;49.92
64158;BME280;50449;51.528;5.076;2023-09-19T10:34:35;100871.72;;;21.59;49.98
64158;BME280;50449;51.528;5.076;2023-09-19T10:37:02;100887.59;;;21.63;49.91
64158;BME280;50449;51.528;5.076;2023-09-19T10:39:32;100862.53;;;21.64;49.88
64158;BME280;50449;51.528;5.076;2023-09-19T10:42:01;100876.78;;;21.66;49.90
64158;BME280;50449;51.528;5.076;2023-09-19T10:44:32;100870.66;;;21.69;49.94
64158;BME280;50449;51.528;5.076;2023-09-19T10:46:57;100861.28;;;21.70;50.32
64158;BME280;50449;51.528;5.076;2023-09-19T10:49:23;100863.72;;;21.72;50.08
64158;BME280;50449;51.528;5.076;2023-09-19T10:51:53;100852.09;;;21.75;50.21
64158;BME280;50449;51.528;5.076;2023-09-19T10:54:25;100855.31;;;21.77;50.39
64158;BME280;50449;51.528;5.076;2023-09-19T10:56:52;100838.53;;;21.78;49.93
64158;BME280;50449;51.528;5.076;2023-09-19T10:59:20;100840.63;;;21.81;50.14
64158;BME280;50449;51.528;5.076;2023-09-19T11:01:54;100841.44;;;21.82;50.02
64158;BME280;50449;51.528;5.076;2023-09-19T11:04:30;100841.94;;;21.84;50.25
64158;BME280;50449;51.528;5.076;2023-09-19T11:07:06;100846.00;;;21.87;50.16
64158;BME280;50449;51.528;5.076;2023-09-19T11:14:55;100836.00;;;21.91;49.96
64158;BME280;50449;51.528;5.076;2023-09-19T11:30:38;100833.13;;;22.04;50.13
64158;BME280;50449;51.528;5.076;2023-09-19T11:33:23;100808.38;;;22.04;50.33
64158;BME280;50449;51.528;5.076;2023-09-19T11:36:15;100804.50;;;22.06;50.23
64158;BME280;50449;51.528;5.076;2023-09-19T11:41:38;100794.47;;;22.10;49.95
64158;BME280;50449;51.528;5.076;2023-09-19T11:49:31;100796.78;;;22.16;49.96
64158;BME280;50449;51.528;5.076;2023-09-19T11:51:59;100790.66;;;22.19;49.76
64158;BME280;50449;51.528;5.076;2023-09-19T11:54:30;100802.97;;;22.22;49.80
64158;BME280;50449;51.528;5.076;2023-09-19T11:56:58;100795.19;;;22.24;49.45
64158;BME280;50449;51.528;5.076;2023-09-19T11:59:25;100801.19;;;22.26;49.72
64158;BME280;50449;51.528;5.076;2023-09-19T12:02:01;100798.13;;;22.28;49.65
64158;BME280;50449;51.528;5.076;2023-09-19T12:07:08;100788.91;;;22.32;49.70
64158;BME280;50449;51.528;5.076;2023-09-19T12:09:39;100800.09;;;22.36;49.32
64158;BME280;50449;51.528;5.076;2023-09-19T12:12:06;100795.38;;;22.36;49.59
64158;BME280;50449;51.528;5.076;2023-09-19T12:14:31;100810.13;;;22.40;49.49
64158;BME280;50449;51.528;5.076;2023-09-19T12:16:57;100814.50;;;22.41;48.88
64158;BME280;50449;51.528;5.076;2023-09-19T12:19:25;100822.09;;;22.44;48.83
64158;BME280;50449;51.528;5.076;2023-09-19T12:22:01;100812.09;;;22.49;49.06
64158;BME280;50449;51.528;5.076;2023-09-19T12:24:29;100807.53;;;22.53;48.74
64158;BME280;50449;51.528;5.076;2023-09-19T12:27:03;100819.06;;;22.55;49.09
64158;BME280;50449;51.528;5.076;2023-09-19T12:29:31;100792.50;;;22.59;48.68
64158;BME280;50449;51.528;5.076;2023-09-19T12:31:58;100803.69;;;22.62;49.06
64158;BME280;50449;51.528;5.076;2023-09-19T12:34:30;100812.13;;;22.66;48.84
64158;BME280;50449;51.528;5.076;2023-09-19T12:39:44;100786.53;;;22.65;48.60
64158;BME280;50449;51.528;5.076;2023-09-19T12:42:24;100776.31;;;22.66;48.33
64158;BME280;50449;51.528;5.076;2023-09-19T12:44:53;100777.94;;;22.67;48.49
64158;BME280;50449;51.528;5.076;2023-09-19T12:47:23;100793.00;;;22.69;48.58
64158;BME280;50449;51.528;5.076;2023-09-19T12:50:14;100792.34;;;22.73;48.78
64158;BME280;50449;51.528;5.076;2023-09-19T12:52:48;100792.53;;;22.76;48.67
64158;BME280;50449;51.528;5.076;2023-09-19T12:55:25;100781.50;;;22.76;48.91
64158;BME280;50449;51.528;5.076;2023-09-19T13:00:36;100785.38;;;22.84;48.84
64158;BME280;50449;51.528;5.076;2023-09-19T13:05:47;100787.16;;;22.80;48.95
64158;BME280;50449;51.528;5.076;2023-09-19T13:08:39;100802.22;;;22.82;48.87
64158;BME280;50449;51.528;5.076;2023-09-19T13:13:39;100799.81;;;22.89;48.55
64158;BME280;50449;51.528;5.076;2023-09-19T13:16:04;100801.09;;;22.92;48.76
64158;BME280;50449;51.528;5.076;2023-09-19T13:18:44;100798.84;;;22.94;48.91
64158;BME280;50449;51.528;5.076;2023-09-19T13:21:14;100802.88;;;22.97;48.97
64158;BME280;50449;51.528;5.076;2023-09-19T13:23:53;100789.63;;;22.99;48.85
64158;BME280;50449;51.528;5.076;2023-09-19T13:26:27;100785.41;;;23.01;48.72
64158;BME280;50449;51.528;5.076;2023-09-19T13:28:54;100797.72;;;23.04;48.89
64158;BME280;50449;51.528;5.076;2023-09-19T13:31:19;100787.50;;;23.04;48.48
64158;BME280;50449;51.528;5.076;2023-09-19T13:33:47;100787.66;;;23.08;48.57
64158;BME280;50449;51.528;5.076;2023-09-19T13:36:13;100801.13;;;23.09;48.89
64158;BME280;50449;51.528;5.076;2023-09-19T13:38:42;100790.59;;;23.11;48.49
64158;BME280;50449;51.528;5.076;2023-09-19T13:41:11;100794.47;;;23.10;48.37
64158;BME280;50449;51.528;5.076;2023-09-19T13:43:37;100797.22;;;23.10;48.83
64158;BME280;50449;51.528;5.076;2023-09-19T13:46:04;100800.16;;;23.14;48.76
64158;BME280;50449;51.528;5.076;2023-09-19T13:48:32;100798.38;;;23.09;48.83
64158;BME280;50449;51.528;5.076;2023-09-19T13:51:01;100791.06;;;23.14;48.80
64158;BME280;50449;51.528;5.076;2023-09-19T13:53:27;100784.91;;;23.17;48.67
64158;BME280;50449;51.528;5.076;2023-09-19T13:55:52;100784.56;;;23.18;48.71